Terminal Aerodrome Forecast
Issued by NWS

Home | Current Version | Previous Version | Text Only | Print | Product List | Glossary On
Versions: 1 2 3 4 5 6 7 8 9 10 11 12 13 14 15 16 17
000
FTUS46 KMTR 281734
TAFMRY
TAF
KMRY 281734Z 2818/2918 25004KT P6SM OVC015
     FM281900 29005KT P6SM SCT020
     FM282000 29008KT P6SM SKC
     FM290400 24004KT P6SM SCT010
     FM290600 23003KT P6SM OVC006
     FM291000 25003KT 5SM BR OVC004=

USA.gov is the U.S. government's official web portal to all federal, state and local government web resources and services.